SASJ/JUJ METAR and TAF weather

Enter ICAO airport designator
Station Type Date Time Source
SASJ METAR 2020/09/19 17:00 UTC NOAA

SASJ 191700Z 18016G26KT 7000 BKN040 23/01 Q1022


Station Type Date Time Source
SASJ Decoded METAR 2020/09/19 17:00 UTC NOAA

Jujuy Aerodrome, Argentina (SASJ) 24-23S 065-05W 905M
Sep 19, 2020 - 01:00 PM EDT / 2020.09.19 1700 UTC
Wind: from the S (180 degrees) at 18 MPH (16 KT) gusting to 30 MPH (26 KT):0
Visibility: 4 mile(s):0
Sky conditions: mostly cloudy
Temperature: 73 F (23 C)
Dew Point: 33 F (1 C)
Relative Humidity: 23%
Pressure (altimeter): 30.18 in. Hg (1022 hPa)
ob: SASJ 191700Z 18016G26KT 7000 BKN040 23/01 Q1022
cycle: 17

Station Type Date Time Source
SASJ TAF 2020/09/19 18:12 UTC NOAA

TAF SASJ 191700Z 1918/2018 18020G30KT 5000 BLDU SCT030 BKN040 TX21/2018Z TN12/2010Z
BECMG 2000/2003 25005KT 9999 BKN030 OVC050
BECMG 2005/2008 27005KT
BECMG 2008/2011 VRB03KT
BECMG 2015/2018 05015KT CAVOK

Example: see airport list